sensor_id;sensor_type;location;lat;lon;timestamp;P1;durP1;ratioP1;P2;durP2;ratioP2
5702;SDS011;2876;51.738;10.050;2023-05-07T00:13:01;31.30;;;17.20;;
5702;SDS011;2876;51.738;10.050;2023-05-07T01:05:51;22.20;;;16.67;;
5702;SDS011;2876;51.738;10.050;2023-05-07T01:12:43;21.03;;;14.87;;
5702;SDS011;2876;51.738;10.050;2023-05-07T01:28:03;24.57;;;16.40;;
5702;SDS011;2876;51.738;10.050;2023-05-07T01:48:54;25.80;;;18.50;;
5702;SDS011;2876;51.738;10.050;2023-05-07T01:55:14;23.23;;;16.53;;
5702;SDS011;2876;51.738;10.050;2023-05-07T02:02:05;25.20;;;18.07;;
5702;SDS011;2876;51.738;10.050;2023-05-07T02:08:22;29.07;;;19.90;;
5702;SDS011;2876;51.738;10.050;2023-05-07T02:14:53;26.53;;;18.50;;
5702;SDS011;2876;51.738;10.050;2023-05-07T02:21:36;29.93;;;19.57;;
5702;SDS011;2876;51.738;10.050;2023-05-07T02:28:13;27.70;;;17.93;;
5702;SDS011;2876;51.738;10.050;2023-05-07T02:41:25;24.83;;;16.43;;
5702;SDS011;2876;51.738;10.050;2023-05-07T02:47:38;24.10;;;16.77;;
5702;SDS011;2876;51.738;10.050;2023-05-07T03:24:16;25.87;;;16.70;;
5702;SDS011;2876;51.738;10.050;2023-05-07T03:31:17;27.83;;;16.53;;
5702;SDS011;2876;51.738;10.050;2023-05-07T03:45:52;22.80;;;16.00;;
5702;SDS011;2876;51.738;10.050;2023-05-07T04:22:39;17.70;;;12.50;;
5702;SDS011;2876;51.738;10.050;2023-05-07T04:30:24;15.53;;;11.47;;
5702;SDS011;2876;51.738;10.050;2023-05-07T04:43:58;17.10;;;12.10;;
5702;SDS011;2876;51.738;10.050;2023-05-07T05:03:27;15.50;;;10.83;;
5702;SDS011;2876;51.738;10.050;2023-05-07T05:16:54;14.37;;;10.20;;
5702;SDS011;2876;51.738;10.050;2023-05-07T05:24:32;15.23;;;10.77;;
5702;SDS011;2876;51.738;10.050;2023-05-07T05:46:20;16.23;;;11.40;;
5702;SDS011;2876;51.738;10.050;2023-05-07T05:52:49;18.53;;;12.43;;
5702;SDS011;2876;51.738;10.050;2023-05-07T06:23:13;16.13;;;8.80;;
5702;SDS011;2876;51.738;10.050;2023-05-07T06:30:02;15.87;;;10.30;;
5702;SDS011;2876;51.738;10.050;2023-05-07T06:36:37;14.03;;;9.70;;
5702;SDS011;2876;51.738;10.050;2023-05-07T06:43:28;11.40;;;8.70;;
5702;SDS011;2876;51.738;10.050;2023-05-07T07:43:31;11.70;;;6.73;;
5702;SDS011;2876;51.738;10.050;2023-05-07T07:58:03;11.03;;;8.07;;
5702;SDS011;2876;51.738;10.050;2023-05-07T09:12:40;6.00;;;5.13;;
5702;SDS011;2876;51.738;10.050;2023-05-07T09:18:52;8.50;;;5.73;;
5702;SDS011;2876;51.738;10.050;2023-05-07T09:25:15;7.10;;;6.40;;
5702;SDS011;2876;51.738;10.050;2023-05-07T09:31:43;7.90;;;6.20;;
5702;SDS011;2876;51.738;10.050;2023-05-07T09:52:22;8.03;;;6.73;;
5702;SDS011;2876;51.738;10.050;2023-05-07T09:59:10;10.73;;;7.57;;
5702;SDS011;2876;51.738;10.050;2023-05-07T10:05:46;8.27;;;7.10;;
5702;SDS011;2876;51.738;10.050;2023-05-07T10:12:53;9.20;;;7.63;;
5702;SDS011;2876;51.738;10.050;2023-05-07T10:19:57;8.47;;;7.40;;
5702;SDS011;2876;51.738;10.050;2023-05-07T10:26:13;10.97;;;7.53;;
5702;SDS011;2876;51.738;10.050;2023-05-07T10:33:06;8.77;;;7.60;;
5702;SDS011;2876;51.738;10.050;2023-05-07T10:39:20;10.60;;;8.43;;
5702;SDS011;2876;51.738;10.050;2023-05-07T10:45:36;8.00;;;6.70;;
5702;SDS011;2876;51.738;10.050;2023-05-07T10:58:35;8.50;;;7.20;;
5702;SDS011;2876;51.738;10.050;2023-05-07T11:19:04;9.23;;;8.23;;
5702;SDS011;2876;51.738;10.050;2023-05-07T11:31:40;8.27;;;7.40;;
5702;SDS011;2876;51.738;10.050;2023-05-07T11:38:37;12.20;;;8.33;;
5702;SDS011;2876;51.738;10.050;2023-05-07T11:45:05;9.87;;;8.83;;
5702;SDS011;2876;51.738;10.050;2023-05-07T11:52:00;11.07;;;8.60;;
5702;SDS011;2876;51.738;10.050;2023-05-07T12:20:50;9.43;;;8.30;;
5702;SDS011;2876;51.738;10.050;2023-05-07T12:34:27;8.43;;;7.53;;
5702;SDS011;2876;51.738;10.050;2023-05-07T12:40:36;7.70;;;6.90;;
5702;SDS011;2876;51.738;10.050;2023-05-07T12:46:52;9.97;;;6.80;;
5702;SDS011;2876;51.738;10.050;2023-05-07T12:53:10;14.70;;;8.27;;
5702;SDS011;2876;51.738;10.050;2023-05-07T13:00:06;6.60;;;6.00;;
5702;SDS011;2876;51.738;10.050;2023-05-07T13:06:52;6.60;;;6.00;;
5702;SDS011;2876;51.738;10.050;2023-05-07T13:13:22;6.00;;;5.40;;
5702;SDS011;2876;51.738;10.050;2023-05-07T13:20:13;9.77;;;5.60;;
5702;SDS011;2876;51.738;10.050;2023-05-07T13:26:35;7.10;;;6.40;;
5702;SDS011;2876;51.738;10.050;2023-05-07T13:32:46;7.43;;;6.20;;
5702;SDS011;2876;51.738;10.050;2023-05-07T13:39:08;6.47;;;5.70;;
5702;SDS011;2876;51.738;10.050;2023-05-07T13:45:19;6.77;;;6.07;;
5702;SDS011;2876;51.738;10.050;2023-05-07T13:51:27;6.60;;;5.90;;
5702;SDS011;2876;51.738;10.050;2023-05-07T13:57:32;6.73;;;6.13;;
5702;SDS011;2876;51.738;10.050;2023-05-07T14:10:56;6.67;;;5.97;;
5702;SDS011;2876;51.738;10.050;2023-05-07T14:17:05;6.43;;;5.83;;
5702;SDS011;2876;51.738;10.050;2023-05-07T14:23:08;6.33;;;5.73;;
5702;SDS011;2876;51.738;10.050;2023-05-07T14:29:21;7.07;;;6.37;;
5702;SDS011;2876;51.738;10.050;2023-05-07T14:35:24;6.17;;;5.57;;
5702;SDS011;2876;51.738;10.050;2023-05-07T14:41:38;6.17;;;5.57;;
5702;SDS011;2876;51.738;10.050;2023-05-07T14:48:09;5.30;;;4.90;;
5702;SDS011;2876;51.738;10.050;2023-05-07T14:54:19;5.90;;;5.30;;
5702;SDS011;2876;51.738;10.050;2023-05-07T15:02:01;5.20;;;4.70;;
5702;SDS011;2876;51.738;10.050;2023-05-07T15:08:07;5.00;;;4.60;;
5702;SDS011;2876;51.738;10.050;2023-05-07T15:14:16;5.77;;;5.17;;
5702;SDS011;2876;51.738;10.050;2023-05-07T15:28:04;5.27;;;4.70;;
5702;SDS011;2876;51.738;10.050;2023-05-07T15:34:08;6.00;;;5.50;;
5702;SDS011;2876;51.738;10.050;2023-05-07T15:40:16;6.83;;;5.80;;
5702;SDS011;2876;51.738;10.050;2023-05-07T15:47:00;6.10;;;5.60;;
5702;SDS011;2876;51.738;10.050;2023-05-07T15:53:03;6.97;;;6.27;;
5702;SDS011;2876;51.738;10.050;2023-05-07T15:59:06;9.17;;;8.20;;
5702;SDS011;2876;51.738;10.050;2023-05-07T16:05:19;7.30;;;6.63;;
5702;SDS011;2876;51.738;10.050;2023-05-07T16:12:01;7.20;;;6.50;;
5702;SDS011;2876;51.738;10.050;2023-05-07T16:18:04;13.40;;;7.73;;
5702;SDS011;2876;51.738;10.050;2023-05-07T16:24:39;7.30;;;6.47;;
5702;SDS011;2876;51.738;10.050;2023-05-07T16:30:45;7.50;;;6.77;;
5702;SDS011;2876;51.738;10.050;2023-05-07T16:36:53;8.30;;;7.03;;
5702;SDS011;2876;51.738;10.050;2023-05-07T16:42:59;6.87;;;6.20;;
5702;SDS011;2876;51.738;10.050;2023-05-07T16:50:04;7.30;;;6.70;;
5702;SDS011;2876;51.738;10.050;2023-05-07T16:56:37;7.93;;;7.13;;
5702;SDS011;2876;51.738;10.050;2023-05-07T17:03:00;7.87;;;7.17;;
5702;SDS011;2876;51.738;10.050;2023-05-07T17:09:23;7.00;;;6.40;;
5702;SDS011;2876;51.738;10.050;2023-05-07T17:16:39;6.90;;;6.23;;
5702;SDS011;2876;51.738;10.050;2023-05-07T17:31:12;8.20;;;7.40;;
5702;SDS011;2876;51.738;10.050;2023-05-07T17:37:31;7.80;;;7.00;;
5702;SDS011;2876;51.738;10.050;2023-05-07T17:44:41;7.23;;;6.40;;
5702;SDS011;2876;51.738;10.050;2023-05-07T17:51:06;6.20;;;5.60;;
5702;SDS011;2876;51.738;10.050;2023-05-07T17:58:06;5.30;;;4.77;;
5702;SDS011;2876;51.738;10.050;2023-05-07T18:11:31;9.43;;;6.53;;
5702;SDS011;2876;51.738;10.050;2023-05-07T18:17:56;6.50;;;5.60;;
5702;SDS011;2876;51.738;10.050;2023-05-07T18:24:25;8.67;;;6.13;;
5702;SDS011;2876;51.738;10.050;2023-05-07T18:39:24;6.30;;;5.70;;
5702;SDS011;2876;51.738;10.050;2023-05-07T18:46:18;7.53;;;5.93;;
5702;SDS011;2876;51.738;10.050;2023-05-07T18:52:36;7.77;;;6.10;;
5702;SDS011;2876;51.738;10.050;2023-05-07T19:00:01;6.30;;;5.27;;
5702;SDS011;2876;51.738;10.050;2023-05-07T19:20:53;6.20;;;5.30;;
5702;SDS011;2876;51.738;10.050;2023-05-07T19:27:49;9.20;;;5.50;;
5702;SDS011;2876;51.738;10.050;2023-05-07T19:42:06;6.00;;;4.60;;
5702;SDS011;2876;51.738;10.050;2023-05-07T19:49:42;6.60;;;4.03;;
5702;SDS011;2876;51.738;10.050;2023-05-07T20:34:38;4.73;;;4.33;;
5702;SDS011;2876;51.738;10.050;2023-05-07T21:11:44;4.83;;;4.30;;
5702;SDS011;2876;51.738;10.050;2023-05-07T21:18:02;4.50;;;4.10;;
5702;SDS011;2876;51.738;10.050;2023-05-07T21:31:58;5.20;;;4.70;;
5702;SDS011;2876;51.738;10.050;2023-05-07T21:39:20;6.20;;;5.00;;
5702;SDS011;2876;51.738;10.050;2023-05-07T21:45:59;8.37;;;5.80;;
5702;SDS011;2876;51.738;10.050;2023-05-07T23:46:34;9.33;;;7.40;;
